Time;durP1;ratioP1;P1;durP2;ratioP2;P2;SDS_P1;SDS_P2;PMS_P1;PMS_P2;Temp;Humidity;BMP_temperature;BMP_pressure;BME280_temperature;BME280_humidity;BME280_pressure;Samples;Min_cycle;Max_cycle;Signal;HPM_P1;HPM_P2
2022/12/01 00:00:35;;;;;;;24.70;13.48;;;;;;;;;;5048414;28;20028;-77
2022/12/01 00:03:01;;;;;;;22.88;12.43;;;;;;;;;;5048425;28;20607;-76
2022/12/01 00:05:26;;;;;;;24.55;12.45;;;;;;;;;;5048389;28;20025;-78
2022/12/01 00:07:52;;;;;;;21.88;11.70;;;;;;;;;;5048476;28;20511;-77
2022/12/01 00:10:27;;;;;;;24.30;12.30;;;;;;;;;;5048189;28;20472;-77
2022/12/01 00:12:53;;;;;;;23.65;12.52;;;;;;;;;;5048202;28;20523;-77
2022/12/01 00:15:19;;;;;;;24.95;12.20;;;;;;;;;;5048517;28;20524;-77
2022/12/01 00:17:46;;;;;;;22.92;12.20;;;;;;;;;;5050564;28;20081;-77
2022/12/01 00:20:13;;;;;;;27.02;13.38;;;;;;;;;;5048000;28;20596;-77
2022/12/01 00:22:42;;;;;;;24.15;12.82;;;;;;;;;;5048073;28;20028;-78
2022/12/01 00:25:07;;;;;;;26.17;13.27;;;;;;;;;;5047296;28;20056;-78
2022/12/01 00:27:33;;;;;;;25.80;12.90;;;;;;;;;;5046454;28;20429;-77
2022/12/01 00:29:58;;;;;;;26.35;12.68;;;;;;;;;;5047835;28;20532;-78
2022/12/01 00:32:23;;;;;;;23.55;12.52;;;;;;;;;;5046803;28;20029;-77
2022/12/01 00:34:49;;;;;;;23.85;12.20;;;;;;;;;;5048015;28;20021;-77
2022/12/01 00:37:14;;;;;;;24.85;12.57;;;;;;;;;;5047986;28;20078;-76
2022/12/01 00:39:39;;;;;;;25.52;12.60;;;;;;;;;;5047670;28;20029;-77
2022/12/01 00:42:05;;;;;;;26.00;12.63;;;;;;;;;;5047727;28;20025;-77
2022/12/01 00:44:30;;;;;;;25.13;12.40;;;;;;;;;;5047725;28;20086;-77
2022/12/01 00:46:55;;;;;;;26.70;13.13;;;;;;;;;;5047783;28;20117;-76
2022/12/01 00:49:21;;;;;;;26.42;13.35;;;;;;;;;;5047532;28;20025;-77
2022/12/01 00:51:46;;;;;;;27.95;13.27;;;;;;;;;;5047521;28;20045;-77
2022/12/01 00:54:12;;;;;;;24.77;13.27;;;;;;;;;;5047640;28;20071;-77
2022/12/01 00:56:37;;;;;;;27.92;13.73;;;;;;;;;;5047601;28;20055;-78
2022/12/01 00:59:02;;;;;;;24.95;13.23;;;;;;;;;;5047322;28;20104;-77
2022/12/01 01:01:28;;;;;;;25.00;13.05;;;;;;;;;;5046179;28;20033;-77
2022/12/01 01:03:53;;;;;;;26.67;13.63;;;;;;;;;;5047680;28;20113;-77
2022/12/01 01:06:18;;;;;;;25.17;13.20;;;;;;;;;;5047262;28;20025;-76
2022/12/01 01:08:44;;;;;;;26.30;13.43;;;;;;;;;;5046210;28;20067;-77
2022/12/01 01:11:09;;;;;;;24.48;12.57;;;;;;;;;;5047234;28;20124;-77
2022/12/01 01:13:35;;;;;;;28.08;13.65;;;;;;;;;;5047249;28;20411;-76
2022/12/01 01:16:01;;;;;;;30.23;13.85;;;;;;;;;;5047299;28;20036;-76
2022/12/01 01:18:27;;;;;;;28.27;13.35;;;;;;;;;;5046036;28;20024;-77
2022/12/01 01:21:02;;;;;;;29.60;13.90;;;;;;;;;;5047205;28;20037;-78
2022/12/01 01:23:27;;;;;;;26.40;13.43;;;;;;;;;;5046060;28;20021;-78
2022/12/01 01:25:53;;;;;;;31.52;15.10;;;;;;;;;;5047186;28;20437;-79
2022/12/01 01:28:18;;;;;;;28.30;13.75;;;;;;;;;;5047104;28;20021;-77
2022/12/01 01:30:45;;;;;;;27.50;13.70;;;;;;;;;;5046996;28;20223;-77
2022/12/01 01:33:10;;;;;;;27.60;14.05;;;;;;;;;;5047078;28;20477;-77
2022/12/01 01:35:36;;;;;;;28.67;13.13;;;;;;;;;;5047074;28;20531;-77
2022/12/01 01:38:01;;;;;;;28.35;14.23;;;;;;;;;;5047060;28;20032;-77
2022/12/01 01:40:26;;;;;;;27.17;13.35;;;;;;;;;;5046801;28;20486;-77
2022/12/01 01:42:52;;;;;;;26.67;13.40;;;;;;;;;;5046996;28;20044;-77
2022/12/01 01:45:23;;;;;;;29.75;13.63;;;;;;;;;;5047897;28;20384;-77
2022/12/01 01:47:51;;;;;;;26.33;13.27;;;;;;;;;;5046952;28;20060;-77
2022/12/01 01:50:21;;;;;;;27.88;13.68;;;;;;;;;;5046615;28;20041;-76
2022/12/01 01:53:16;;;;;;;30.05;14.48;;;;;;;;;;5046605;28;20041;-78
2022/12/01 01:55:41;;;;;;;29.60;14.00;;;;;;;;;;5051801;28;20025;-77
2022/12/01 01:58:09;;;;;;;28.08;13.63;;;;;;;;;;5047119;28;20392;-76
2022/12/01 02:00:36;;;;;;;25.75;13.55;;;;;;;;;;5046707;28;20392;-76
2022/12/01 02:03:02;;;;;;;27.60;13.60;;;;;;;;;;5047074;28;20025;-77
2022/12/01 02:05:31;;;;;;;26.40;13.18;;;;;;;;;;5046831;28;20037;-78
2022/12/01 02:07:59;;;;;;;29.63;13.82;;;;;;;;;;5046613;28;20021;-78
2022/12/01 02:11:06;;;;;;;27.80;13.30;;;;;;;;;;5046538;28;20025;-78
2022/12/01 02:13:45;;;;;;;26.17;12.93;;;;;;;;;;5046368;27;20509;-77
2022/12/01 02:16:25;;;;;;;25.40;12.80;;;;;;;;;;5046671;28;20028;-77
2022/12/01 02:18:58;;;;;;;24.90;12.80;;;;;;;;;;5046725;28;20033;-79
2022/12/01 02:21:35;;;;;;;28.75;12.52;;;;;;;;;;5046531;28;20025;-77
2022/12/01 02:24:27;;;;;;;25.10;13.20;;;;;;;;;;5046607;28;20028;-77
2022/12/01 02:27:03;;;;;;;27.33;13.07;;;;;;;;;;5046305;28;20058;-78
2022/12/01 02:29:55;;;;;;;24.02;12.35;;;;;;;;;;5046169;28;20029;-77
2022/12/01 02:32:32;;;;;;;22.92;11.77;;;;;;;;;;5046329;28;20032;-77
2022/12/01 02:35:07;;;;;;;25.50;12.75;;;;;;;;;;5046524;28;20087;-79
2022/12/01 02:38:03;;;;;;;23.40;12.38;;;;;;;;;;5046436;28;20037;-77
2022/12/01 02:40:43;;;;;;;22.55;11.93;;;;;;;;;;5046195;28;20040;-78
2022/12/01 02:43:14;;;;;;;21.83;11.60;;;;;;;;;;5046070;28;20444;-77
2022/12/01 02:45:46;;;;;;;23.33;12.13;;;;;;;;;;5046130;28;20065;-77
2022/12/01 02:48:18;;;;;;;23.40;12.00;;;;;;;;;;5046364;28;20525;-78
2022/12/01 02:50:44;;;;;;;27.73;12.00;;;;;;;;;;5049489;28;20036;-79
2022/12/01 02:53:14;;;;;;;24.02;12.18;;;;;;;;;;5049508;28;20381;-80
2022/12/01 02:55:47;;;;;;;23.60;12.23;;;;;;;;;;5049719;28;20028;-80
2022/12/01 02:58:14;;;;;;;25.30;12.25;;;;;;;;;;5048105;28;20033;-79
2022/12/01 03:00:46;;;;;;;26.20;13.02;;;;;;;;;;5049291;28;20037;-77
2022/12/01 03:04:02;;;;;;;27.90;13.38;;;;;;;;;;5049399;28;20116;-78
2022/12/01 03:06:57;;;;;;;27.85;13.30;;;;;;;;;;5057800;28;20098;-79
2022/12/01 03:09:32;;;;;;;27.63;13.82;;;;;;;;;;5049594;28;20036;-78
2022/12/01 03:11:58;;;;;;;30.38;13.90;;;;;;;;;;5049179;28;20037;-78
2022/12/01 03:14:52;;;;;;;28.95;14.02;;;;;;;;;;5049291;28;20025;-79
2022/12/01 03:17:24;;;;;;;30.38;14.65;;;;;;;;;;5047747;28;20472;-78
2022/12/01 03:20:07;;;;;;;28.15;13.85;;;;;;;;;;5049022;28;20032;-79
2022/12/01 03:22:40;;;;;;;26.42;13.80;;;;;;;;;;5049262;28;20104;-78
2022/12/01 03:25:08;;;;;;;27.55;13.13;;;;;;;;;;5049239;28;20052;-79
2022/12/01 03:27:39;;;;;;;28.60;14.70;;;;;;;;;;5048901;28;20025;-78
2022/12/01 03:30:09;;;;;;;;;;;;;;;;;;5049400;28;20028;-78
2022/12/01 03:32:46;;;;;;;32.35;13.95;;;;;;;;;;5048891;28;20268;-79
2022/12/01 03:35:20;;;;;;;32.08;15.10;;;;;;;;;;5048827;28;20089;-78
2022/12/01 03:37:56;;;;;;;33.95;15.20;;;;;;;;;;5048735;28;20380;-79
2022/12/01 03:40:26;;;;;;;31.98;16.10;;;;;;;;;;5048654;28;20631;-79
2022/12/01 03:43:08;;;;;;;33.85;17.08;;;;;;;;;;5048926;28;20108;-78
2022/12/01 03:45:42;;;;;;;35.10;17.05;;;;;;;;;;5048883;28;20101;-76
2022/12/01 03:48:08;;;;;;;34.00;16.98;;;;;;;;;;5048778;28;20025;-76
2022/12/01 03:50:53;;;;;;;36.42;17.20;;;;;;;;;;5048522;28;20040;-77
2022/12/01 03:53:25;;;;;;;35.63;16.88;;;;;;;;;;5048621;28;20037;-76
2022/12/01 03:55:56;;;;;;;36.90;18.63;;;;;;;;;;5048676;28;20081;-76
2022/12/01 03:58:27;;;;;;;36.63;18.65;;;;;;;;;;5048512;28;20112;-78
2022/12/01 04:00:56;;;;;;;37.80;17.35;;;;;;;;;;5048468;28;20036;-77
2022/12/01 04:03:24;;;;;;;37.42;18.65;;;;;;;;;;5048767;28;20120;-77
2022/12/01 04:05:50;;;;;;;34.72;17.15;;;;;;;;;;5048487;28;20020;-78
2022/12/01 04:08:15;;;;;;;34.60;17.17;;;;;;;;;;5048392;28;20146;-78
2022/12/01 04:10:40;;;;;;;36.90;16.85;;;;;;;;;;5048198;28;20021;-79
2022/12/01 04:13:10;;;;;;;37.55;17.90;;;;;;;;;;5048092;28;20029;-78
2022/12/01 04:15:36;;;;;;;41.05;18.83;;;;;;;;;;5048365;28;20077;-77
2022/12/01 04:18:02;;;;;;;41.47;18.73;;;;;;;;;;5048388;28;20500;-77
2022/12/01 04:20:27;;;;;;;44.55;19.42;;;;;;;;;;5048136;28;20025;-78
2022/12/01 04:22:53;;;;;;;36.78;17.95;;;;;;;;;;5048279;28;20029;-78
2022/12/01 04:25:18;;;;;;;41.67;19.90;;;;;;;;;;5048258;28;20021;-77
2022/12/01 04:27:44;;;;;;;40.85;18.50;;;;;;;;;;5047847;28;20048;-78
2022/12/01 04:30:10;;;;;;;39.40;18.10;;;;;;;;;;5047991;28;20464;-77
2022/12/01 04:32:40;;;;;;;38.35;17.60;;;;;;;;;;5047999;28;20091;-78
2022/12/01 04:35:07;;;;;;;35.25;17.10;;;;;;;;;;5048280;28;20073;-78
2022/12/01 04:37:33;;;;;;;39.67;17.67;;;;;;;;;;5048072;28;20028;-77
2022/12/01 04:39:59;;;;;;;36.55;17.70;;;;;;;;;;5047949;28;20025;-77
2022/12/01 04:42:24;;;;;;;38.60;16.98;;;;;;;;;;5047557;28;20033;-78
2022/12/01 04:44:49;;;;;;;36.10;16.52;;;;;;;;;;5047920;28;20029;-77
2022/12/01 04:47:15;;;;;;;36.13;16.58;;;;;;;;;;5047656;28;20064;-78
2022/12/01 04:49:40;;;;;;;32.75;15.50;;;;;;;;;;5047740;28;20028;-78
2022/12/01 04:52:06;;;;;;;36.15;16.08;;;;;;;;;;5047197;28;20083;-79
2022/12/01 04:54:31;;;;;;;33.10;15.30;;;;;;;;;;5047838;28;20086;-77
2022/12/01 04:56:57;;;;;;;37.70;16.60;;;;;;;;;;5047717;28;20054;-80
2022/12/01 04:59:22;;;;;;;34.75;15.85;;;;;;;;;;5046322;28;20029;-78
2022/12/01 05:01:49;;;;;;;33.97;14.50;;;;;;;;;;5047379;28;20404;-79
2022/12/01 05:04:15;;;;;;;33.42;15.15;;;;;;;;;;5047507;28;20025;-78
2022/12/01 05:06:40;;;;;;;31.00;14.65;;;;;;;;;;5047498;28;20400;-77
2022/12/01 05:09:07;;;;;;;32.05;14.80;;;;;;;;;;5047627;28;20425;-78
2022/12/01 05:11:33;;;;;;;31.52;14.13;;;;;;;;;;5045343;28;20062;-77
2022/12/01 05:13:59;;;;;;;29.15;14.60;;;;;;;;;;5047410;28;20104;-79
2022/12/01 05:16:31;;;;;;;32.33;14.38;;;;;;;;;;5047745;28;20045;-78
2022/12/01 05:21:45;;;;;;;31.67;14.60;;;;;;;;;;5047418;28;20035;-78
2022/12/01 05:24:11;;;;;;;29.05;13.98;;;;;;;;;;5047428;28;20031;-79
2022/12/01 05:26:37;;;;;;;30.38;14.23;;;;;;;;;;5048044;28;20392;-79
2022/12/01 05:29:03;;;;;;;30.55;13.80;;;;;;;;;;5048690;28;20029;-78
2022/12/01 05:31:29;;;;;;;28.67;13.57;;;;;;;;;;5046110;28;20051;-77
2022/12/01 05:33:54;;;;;;;27.02;13.70;;;;;;;;;;5045840;28;20496;-78
2022/12/01 05:36:20;;;;;;;29.40;12.90;;;;;;;;;;5047210;28;20029;-77
2022/12/01 05:38:45;;;;;;;31.52;14.02;;;;;;;;;;5046869;28;20381;-77
2022/12/01 05:41:11;;;;;;;31.17;14.93;;;;;;;;;;5046853;28;20509;-78
2022/12/01 05:43:36;;;;;;;31.63;14.45;;;;;;;;;;5047017;28;20032;-77
2022/12/01 05:46:01;;;;;;;31.95;14.50;;;;;;;;;;5047109;28;20086;-77
2022/12/01 05:48:27;;;;;;;36.13;14.50;;;;;;;;;;5047058;28;20029;-77
2022/12/01 05:50:52;;;;;;;39.33;15.88;;;;;;;;;;5046509;28;20025;-78
2022/12/01 05:53:18;;;;;;;32.20;14.95;;;;;;;;;;5046708;28;20068;-76
2022/12/01 05:55:44;;;;;;;33.67;15.88;;;;;;;;;;5046847;28;20392;-79
2022/12/01 05:58:10;;;;;;;31.70;15.30;;;;;;;;;;5046711;28;20025;-77
2022/12/01 06:00:36;;;;;;;32.53;15.02;;;;;;;;;;5046917;28;20017;-78
2022/12/01 06:03:02;;;;;;;34.53;14.35;;;;;;;;;;5046716;28;20025;-79
2022/12/01 06:05:27;;;;;;;35.45;15.23;;;;;;;;;;5046691;28;20025;-79
2022/12/01 06:07:53;;;;;;;38.25;15.70;;;;;;;;;;5045406;27;20472;-79
2022/12/01 06:10:19;;;;;;;36.67;15.88;;;;;;;;;;5046818;28;20484;-79
2022/12/01 06:12:44;;;;;;;35.08;15.45;;;;;;;;;;5046257;28;20036;-80
2022/12/01 06:15:11;;;;;;;40.22;15.82;;;;;;;;;;5046668;28;20483;-79
2022/12/01 06:17:37;;;;;;;38.08;16.38;;;;;;;;;;5046387;28;20519;-79
2022/12/01 06:20:04;;;;;;;39.33;16.52;;;;;;;;;;5046854;28;20108;-80
2022/12/01 06:22:29;;;;;;;38.72;16.20;;;;;;;;;;5046524;28;20129;-78
2022/12/01 06:24:54;;;;;;;38.72;15.77;;;;;;;;;;5048934;28;20116;-77
2022/12/01 06:27:20;;;;;;;36.70;15.50;;;;;;;;;;5049910;28;20021;-78
2022/12/01 06:29:45;;;;;;;38.88;16.05;;;;;;;;;;5049875;28;20025;-77
2022/12/01 06:32:10;;;;;;;39.88;16.42;;;;;;;;;;5049590;28;20025;-77
2022/12/01 06:34:36;;;;;;;37.78;16.02;;;;;;;;;;5049860;28;20044;-77
2022/12/01 06:37:01;;;;;;;37.35;15.70;;;;;;;;;;5048650;28;20029;-78
2022/12/01 06:39:27;;;;;;;37.58;15.35;;;;;;;;;;5049862;28;20601;-77
2022/12/01 06:41:52;;;;;;;37.22;15.52;;;;;;;;;;5049799;28;20504;-77
2022/12/01 06:44:18;;;;;;;36.65;15.27;;;;;;;;;;5049664;28;20044;-78
2022/12/01 06:46:43;;;;;;;38.05;15.95;;;;;;;;;;5049621;28;20025;-77
2022/12/01 06:49:12;;;;;;;35.63;14.90;;;;;;;;;;5049517;28;20021;-77
2022/12/01 06:51:38;;;;;;;36.00;14.63;;;;;;;;;;5048785;28;20048;-79
2022/12/01 06:54:03;;;;;;;35.70;15.35;;;;;;;;;;5049612;28;20112;-77
2022/12/01 06:56:29;;;;;;;32.08;14.10;;;;;;;;;;5049719;28;20028;-78
2022/12/01 06:58:54;;;;;;;33.67;13.77;;;;;;;;;;5049253;28;20085;-77
2022/12/01 07:01:22;;;;;;;31.52;14.38;;;;;;;;;;5049393;28;20178;-76
2022/12/01 07:03:49;;;;;;;34.65;14.05;;;;;;;;;;5049245;28;20021;-78
2022/12/01 07:06:14;;;;;;;35.20;13.95;;;;;;;;;;5049219;28;20040;-77
2022/12/01 07:08:40;;;;;;;31.55;12.85;;;;;;;;;;5047980;28;20021;-77
2022/12/01 07:11:08;;;;;;;34.03;13.25;;;;;;;;;;5049222;28;20033;-76
2022/12/01 07:13:34;;;;;;;29.63;12.40;;;;;;;;;;5049077;28;20033;-77
2022/12/01 07:16:04;;;;;;;28.92;12.75;;;;;;;;;;5050049;28;20033;-77
2022/12/01 07:18:31;;;;;;;28.40;13.00;;;;;;;;;;5049154;28;20021;-76
2022/12/01 07:21:05;;;;;;;26.08;11.73;;;;;;;;;;5049049;28;20112;-76
2022/12/01 07:23:31;;;;;;;28.20;11.55;;;;;;;;;;5048922;28;20027;-76
2022/12/01 07:26:02;;;;;;;26.15;11.77;;;;;;;;;;5049056;28;20041;-76
2022/12/01 07:28:28;;;;;;;26.30;11.23;;;;;;;;;;5048797;28;20036;-77
2022/12/01 07:31:03;;;;;;;26.02;10.88;;;;;;;;;;5048961;28;20029;-76
2022/12/01 07:33:29;;;;;;;24.20;9.68;;;;;;;;;;5048899;28;20032;-76
2022/12/01 07:35:54;;;;;;;22.42;10.35;;;;;;;;;;5048873;28;20025;-77
2022/12/01 07:38:20;;;;;;;25.45;10.60;;;;;;;;;;5049005;28;20108;-76
2022/12/01 07:40:45;;;;;;;22.00;10.20;;;;;;;;;;5047325;28;20530;-76
2022/12/01 07:43:11;;;;;;;22.92;10.90;;;;;;;;;;5048333;28;20033;-76
2022/12/01 07:45:36;;;;;;;25.35;10.85;;;;;;;;;;5048543;28;20103;-76
2022/12/01 07:48:01;;;;;;;30.23;10.85;;;;;;;;;;5048752;28;20013;-74
2022/12/01 07:50:27;;;;;;;25.55;10.98;;;;;;;;;;5048693;28;20036;-76
2022/12/01 07:52:52;;;;;;;25.13;11.02;;;;;;;;;;5048063;28;20097;-76
2022/12/01 07:55:17;;;;;;;19.85;9.88;;;;;;;;;;5048715;28;20021;-76
2022/12/01 07:57:43;;;;;;;21.80;8.98;;;;;;;;;;5048246;28;20033;-77
2022/12/01 08:00:10;;;;;;;19.92;9.27;;;;;;;;;;5048365;28;20108;-76
2022/12/01 08:02:35;;;;;;;20.98;10.05;;;;;;;;;;5048275;28;20373;-76
2022/12/01 08:05:01;;;;;;;20.23;10.02;;;;;;;;;;5048465;28;20033;-76
2022/12/01 08:07:26;;;;;;;19.83;9.20;;;;;;;;;;5048551;28;20028;-81
2022/12/01 08:09:51;;;;;;;22.38;9.15;;;;;;;;;;5049183;28;20025;-80
2022/12/01 08:12:17;;;;;;;19.30;8.73;;;;;;;;;;5047870;28;20063;-80
2022/12/01 08:14:42;;;;;;;16.15;8.48;;;;;;;;;;5048369;28;20021;-78
2022/12/01 08:17:08;;;;;;;19.27;9.05;;;;;;;;;;5048292;28;20076;-80
2022/12/01 08:19:33;;;;;;;17.02;8.60;;;;;;;;;;5048217;28;20025;-80
2022/12/01 08:21:58;;;;;;;20.65;8.60;;;;;;;;;;5048172;28;20043;-80
2022/12/01 08:24:24;;;;;;;19.23;8.18;;;;;;;;;;5048189;28;20017;-79
2022/12/01 08:26:49;;;;;;;17.88;8.52;;;;;;;;;;5048269;28;20031;-79
2022/12/01 08:29:15;;;;;;;18.45;8.48;;;;;;;;;;5047979;28;20222;-78
2022/12/01 08:31:40;;;;;;;17.40;8.10;;;;;;;;;;5047902;28;20062;-83
2022/12/01 08:34:06;;;;;;;15.80;7.63;;;;;;;;;;5047899;28;20025;-77
2022/12/01 08:36:32;;;;;;;18.27;7.90;;;;;;;;;;5048009;28;20096;-80
2022/12/01 08:38:57;;;;;;;14.27;7.00;;;;;;;;;;5046792;28;20025;-77
2022/12/01 08:41:23;;;;;;;14.55;6.70;;;;;;;;;;5048023;28;20029;-75
2022/12/01 08:43:49;;;;;;;16.58;8.30;;;;;;;;;;5047826;28;20024;-75
2022/12/01 08:46:14;;;;;;;17.35;7.05;;;;;;;;;;5047159;28;20093;-78
2022/12/01 08:48:40;;;;;;;9.80;5.65;;;;;;;;;;5047904;28;20021;-75
2022/12/01 08:51:07;;;;;;;11.48;5.88;;;;;;;;;;5047249;28;20033;-81
2022/12/01 08:53:34;;;;;;;10.63;5.82;;;;;;;;;;5047545;28;20059;-77
2022/12/01 08:56:01;;;;;;;12.13;5.90;;;;;;;;;;5048636;28;20036;-81
2022/12/01 08:58:27;;;;;;;9.55;4.82;;;;;;;;;;5047894;28;20064;-78
2022/12/01 09:00:52;;;;;;;13.38;6.13;;;;;;;;;;5047673;28;20060;-80
2022/12/01 09:03:18;;;;;;;13.15;5.68;;;;;;;;;;5047566;28;20033;-83
2022/12/01 09:05:43;;;;;;;9.75;5.30;;;;;;;;;;5047528;28;20060;-80
2022/12/01 09:11:14;;;;;;;10.52;5.47;;;;;;;;;;5024036;28;20052;-78
2022/12/01 09:13:40;;;;;;;10.40;5.65;;;;;;;;;;5047127;28;20059;-77
2022/12/01 09:16:10;;;;;;;10.18;5.10;;;;;;;;;;5047527;28;20036;-75
2022/12/01 09:18:35;;;;;;;11.75;6.03;;;;;;;;;;5047419;28;20036;-77
2022/12/01 09:21:14;;;;;;;13.02;6.20;;;;;;;;;;5076883;27;20023;-75
2022/12/01 09:23:39;;;;;;;11.38;5.93;;;;;;;;;;5151532;27;20550;-74
2022/12/01 09:26:05;;;;;;;12.52;6.45;;;;;;;;;;5052668;27;20025;-73
2022/12/01 09:28:31;;;;;;;12.07;6.07;;;;;;;;;;5047206;28;20615;-74
2022/12/01 09:31:03;;;;;;;14.02;6.00;;;;;;;;;;5049218;27;20033;-75
2022/12/01 09:33:29;;;;;;;14.05;6.65;;;;;;;;;;5043500;28;20057;-75
2022/12/01 09:35:57;;;;;;;19.65;7.82;;;;;;;;;;5049862;28;20028;-76
2022/12/01 09:38:23;;;;;;;22.92;8.00;;;;;;;;;;5102802;27;20027;-75
2022/12/01 09:40:50;;;;;;;14.65;7.00;;;;;;;;;;5055048;27;20618;-75
2022/12/01 09:43:20;;;;;;;13.40;6.18;;;;;;;;;;5046366;28;20063;-74
2022/12/01 09:45:50;;;;;;;11.25;6.35;;;;;;;;;;5046160;28;20081;-74
2022/12/01 09:48:41;;;;;;;9.82;5.50;;;;;;;;;;5045304;27;20150;-74
2022/12/01 09:51:12;;;;;;;9.77;5.25;;;;;;;;;;5041964;27;20025;-74
2022/12/01 09:53:38;;;;;;;9.43;5.10;;;;;;;;;;5031493;27;20025;-74
2022/12/01 09:56:04;;;;;;;10.82;4.90;;;;;;;;;;5056084;27;20029;-75
2022/12/01 09:58:31;;;;;;;10.48;5.10;;;;;;;;;;5045305;28;20103;-74
2022/12/01 10:00:56;;;;;;;9.13;4.85;;;;;;;;;;5049227;28;20025;-74
2022/12/01 10:03:33;;;;;;;10.85;4.72;;;;;;;;;;5041809;28;20076;-73
2022/12/01 10:06:03;;;;;;;9.50;4.65;;;;;;;;;;5057482;28;20343;-74
2022/12/01 10:08:33;;;;;;;12.15;4.90;;;;;;;;;;5060764;28;20028;-75
2022/12/01 10:11:26;;;;;;;9.60;4.85;;;;;;;;;;5051751;28;20027;-75
2022/12/01 10:13:51;;;;;;;9.40;4.80;;;;;;;;;;5049316;28;20067;-75
2022/12/01 10:16:25;;;;;;;11.77;5.93;;;;;;;;;;5051918;28;20044;-76
2022/12/01 10:19:20;;;;;;;11.95;6.15;;;;;;;;;;5049757;28;20025;-75
2022/12/01 10:22:23;;;;;;;20.67;6.22;;;;;;;;;;5049268;28;20057;-73
2022/12/01 10:25:21;;;;;;;12.93;5.70;;;;;;;;;;5049153;28;20029;-73
2022/12/01 10:27:47;;;;;;;9.70;5.15;;;;;;;;;;5146483;27;20022;-75
2022/12/01 10:30:18;;;;;;;13.65;5.60;;;;;;;;;;5086307;27;20150;-72
2022/12/01 10:32:55;;;;;;;11.50;5.40;;;;;;;;;;5048221;28;20527;-77
2022/12/01 10:35:23;;;;;;;13.02;6.18;;;;;;;;;;5046992;28;20037;-74
2022/12/01 10:38:13;;;;;;;15.43;6.53;;;;;;;;;;5046653;27;20093;-74
2022/12/01 10:40:40;;;;;;;14.40;6.40;;;;;;;;;;5044384;28;20577;-74
2022/12/01 10:43:08;;;;;;;13.60;6.63;;;;;;;;;;5037702;28;20484;-74
2022/12/01 10:45:39;;;;;;;13.43;6.40;;;;;;;;;;5046958;28;20033;-74
2022/12/01 10:48:18;;;;;;;13.30;6.60;;;;;;;;;;5049692;28;20102;-74
2022/12/01 10:50:55;;;;;;;12.35;6.50;;;;;;;;;;5048958;28;20492;-74
2022/12/01 10:53:27;;;;;;;12.93;6.65;;;;;;;;;;5047968;28;20535;-74
2022/12/01 10:56:11;;;;;;;12.95;6.72;;;;;;;;;;5048285;28;20029;-74
2022/12/01 10:58:42;;;;;;;12.65;6.68;;;;;;;;;;5047155;28;20384;-73
2022/12/01 11:01:19;;;;;;;12.48;6.00;;;;;;;;;;5048426;28;20050;-74
2022/12/01 11:03:54;;;;;;;14.85;7.55;;;;;;;;;;5048266;28;20404;-74
2022/12/01 11:06:28;;;;;;;13.52;6.47;;;;;;;;;;5049228;28;20033;-74
2022/12/01 11:08:58;;;;;;;15.82;7.10;;;;;;;;;;5047088;28;20034;-74
2022/12/01 11:11:29;;;;;;;14.27;6.95;;;;;;;;;;5042871;28;20034;-76
2022/12/01 11:13:57;;;;;;;13.82;7.10;;;;;;;;;;5045579;28;20642;-75
2022/12/01 11:16:43;;;;;;;13.85;7.03;;;;;;;;;;5046822;28;20109;-74
2022/12/01 11:19:19;;;;;;;11.18;6.35;;;;;;;;;;5053038;28;20325;-75
2022/12/01 11:21:53;;;;;;;11.50;6.20;;;;;;;;;;5059610;28;20374;-79
2022/12/01 11:24:32;;;;;;;13.10;6.38;;;;;;;;;;5058332;28;20254;-78
2022/12/01 11:26:59;;;;;;;10.25;6.15;;;;;;;;;;5059791;28;20033;-76
2022/12/01 11:29:36;;;;;;;12.52;6.13;;;;;;;;;;5051955;28;20170;-74
2022/12/01 11:32:31;;;;;;;12.57;6.65;;;;;;;;;;5058895;28;20035;-79
2022/12/01 11:34:59;;;;;;;13.88;6.55;;;;;;;;;;5056674;28;20528;-80
2022/12/01 11:37:33;;;;;;;12.85;6.70;;;;;;;;;;5055473;27;20045;-80
2022/12/01 11:40:17;;;;;;;12.43;6.70;;;;;;;;;;5057172;28;20029;-78
2022/12/01 11:42:48;;;;;;;11.52;6.65;;;;;;;;;;5050122;27;20029;-76
2022/12/01 11:45:20;;;;;;;13.15;7.10;;;;;;;;;;5043274;28;20025;-77
2022/12/01 11:48:06;;;;;;;12.32;6.88;;;;;;;;;;5057362;28;20373;-77
2022/12/01 11:50:38;;;;;;;14.20;7.05;;;;;;;;;;5057958;28;20200;-73
2022/12/01 11:53:36;;;;;;;12.40;6.80;;;;;;;;;;5052696;28;20048;-74
2022/12/01 11:56:22;;;;;;;11.60;6.72;;;;;;;;;;5037125;28;20033;-77
2022/12/01 11:58:50;;;;;;;12.75;6.47;;;;;;;;;;5037305;28;20075;-75
2022/12/01 12:01:15;;;;;;;13.18;6.93;;;;;;;;;;5031392;28;20044;-73
2022/12/01 12:04:25;;;;;;;13.55;6.72;;;;;;;;;;5029015;28;20033;-76
2022/12/01 12:07:21;;;;;;;14.77;6.87;;;;;;;;;;5027148;28;20078;-74
2022/12/01 12:09:49;;;;;;;10.82;6.38;;;;;;;;;;5028249;28;20260;-74
2022/12/01 12:12:33;;;;;;;16.45;6.63;;;;;;;;;;5028322;28;20036;-76
2022/12/01 12:15:28;;;;;;;11.73;6.10;;;;;;;;;;5043262;28;20025;-77
2022/12/01 12:18:07;;;;;;;12.68;6.20;;;;;;;;;;5048160;28;20029;-77
2022/12/01 12:21:06;;;;;;;10.43;6.25;;;;;;;;;;5047957;28;20082;-74
2022/12/01 12:24:00;;;;;;;14.23;6.40;;;;;;;;;;5046229;28;20124;-77
2022/12/01 12:26:33;;;;;;;12.77;6.38;;;;;;;;;;5046484;28;20029;-78
2022/12/01 12:29:29;;;;;;;10.32;5.75;;;;;;;;;;5046417;28;20547;-79
2022/12/01 12:32:00;;;;;;;10.82;5.55;;;;;;;;;;5046466;28;20061;-77
2022/12/01 12:35:04;;;;;;;13.10;6.32;;;;;;;;;;5046456;28;20025;-75
2022/12/01 12:37:41;;;;;;;12.70;6.32;;;;;;;;;;4984455;28;20533;-78
2022/12/01 12:40:07;;;;;;;13.77;6.60;;;;;;;;;;4985773;28;20733;-78
2022/12/01 12:42:35;;;;;;;11.80;6.35;;;;;;;;;;5018798;28;20037;-78
2022/12/01 12:45:15;;;;;;;10.93;6.07;;;;;;;;;;5047603;28;20503;-78
2022/12/01 12:48:34;;;;;;;11.95;5.80;;;;;;;;;;5047677;28;20215;-78
2022/12/01 12:51:25;;;;;;;10.90;5.45;;;;;;;;;;4985487;28;20037;-78
2022/12/01 12:53:53;;;;;;;;;;;;;;;;;;5039843;28;20049;-77
2022/12/01 12:56:23;;;;;;;13.70;6.38;;;;;;;;;;5047524;28;19948;-77
2022/12/01 12:58:54;;;;;;;11.77;6.20;;;;;;;;;;5047158;28;20024;-76
2022/12/01 13:01:31;;;;;;;11.43;5.80;;;;;;;;;;5047446;28;20025;-77
2022/12/01 13:04:21;;;;;;;10.57;6.15;;;;;;;;;;5047465;28;20102;-77
2022/12/01 13:07:05;;;;;;;10.30;6.20;;;;;;;;;;5047498;28;20108;-78
2022/12/01 13:09:37;;;;;;;11.35;5.78;;;;;;;;;;5047489;28;20056;-77
2022/12/01 13:12:14;;;;;;;11.07;5.93;;;;;;;;;;5047196;28;20112;-78
2022/12/01 13:14:51;;;;;;;8.73;5.53;;;;;;;;;;5047016;28;20026;-77
2022/12/01 13:17:22;;;;;;;10.02;5.95;;;;;;;;;;5047036;28;20474;-77
2022/12/01 13:19:48;;;;;;;9.55;5.47;;;;;;;;;;5046849;28;20095;-77
2022/12/01 13:22:15;;;;;;;10.65;5.95;;;;;;;;;;5047333;28;20492;-76
2022/12/01 13:24:40;;;;;;;10.48;5.68;;;;;;;;;;5047082;28;20025;-77
2022/12/01 13:27:15;;;;;;;11.20;6.32;;;;;;;;;;5047220;28;20156;-77
2022/12/01 13:29:47;;;;;;;11.45;5.88;;;;;;;;;;5047148;28;20056;-77
2022/12/01 13:32:42;;;;;;;9.63;5.80;;;;;;;;;;5046754;28;20121;-77
2022/12/01 13:35:22;;;;;;;10.90;5.50;;;;;;;;;;5046885;28;20021;-76
2022/12/01 13:37:48;;;;;;;;;;;;;;;;;;5047400;28;20488;-77
2022/12/01 13:40:24;;;;;;;10.38;5.68;;;;;;;;;;5047134;28;19920;-77
2022/12/01 13:43:05;;;;;;;12.32;6.53;;;;;;;;;;5047721;28;20024;-72
2022/12/01 13:45:34;;;;;;;10.95;5.75;;;;;;;;;;5074884;27;20054;-74
2022/12/01 13:48:01;;;;;;;10.90;6.43;;;;;;;;;;5161486;27;20030;-74
2022/12/01 13:50:35;;;;;;;12.65;6.97;;;;;;;;;;5075951;27;20036;-74
2022/12/01 13:53:19;;;;;;;11.55;6.10;;;;;;;;;;5046389;28;20565;-75
2022/12/01 13:56:29;;;;;;;12.52;6.38;;;;;;;;;;5045883;28;20049;-76
2022/12/01 13:58:54;;;;;;;11.27;6.38;;;;;;;;;;5028960;28;20878;-76
2022/12/01 14:01:20;;;;;;;12.20;6.88;;;;;;;;;;5045846;28;20029;-74
2022/12/01 14:03:55;;;;;;;11.00;6.72;;;;;;;;;;5043987;28;20025;-75
2022/12/01 14:06:45;;;;;;;11.88;6.68;;;;;;;;;;5044794;28;20028;-76
2022/12/01 14:09:30;;;;;;;12.07;6.68;;;;;;;;;;5044849;28;20120;-75
2022/12/01 14:12:05;;;;;;;12.80;7.25;;;;;;;;;;5044850;28;20025;-75
2022/12/01 14:14:36;;;;;;;12.98;7.03;;;;;;;;;;5045000;28;20021;-78
2022/12/01 14:17:02;;;;;;;13.82;7.38;;;;;;;;;;5045062;28;20025;-72
2022/12/01 14:19:38;;;;;;;13.88;7.00;;;;;;;;;;5046114;28;20029;-79
2022/12/01 14:22:06;;;;;;;14.30;7.25;;;;;;;;;;5046545;28;20029;-75
2022/12/01 14:24:35;;;;;;;15.43;7.15;;;;;;;;;;5046191;28;20028;-75
2022/12/01 14:27:03;;;;;;;11.68;7.18;;;;;;;;;;5046410;28;20029;-78
2022/12/01 14:29:30;;;;;;;13.38;7.03;;;;;;;;;;5046454;28;20503;-80
2022/12/01 14:31:59;;;;;;;12.70;7.18;;;;;;;;;;5045281;28;20593;-77
2022/12/01 14:34:28;;;;;;;13.73;7.68;;;;;;;;;;5046490;28;20044;-74
2022/12/01 14:37:18;;;;;;;12.43;7.35;;;;;;;;;;5046426;28;20472;-75
2022/12/01 14:39:49;;;;;;;11.30;7.03;;;;;;;;;;5048563;27;20065;-75
2022/12/01 14:45:49;;;;;;;16.02;6.68;;;;;;;;;;5047721;28;20547;-74
2022/12/01 14:48:21;;;;;;;13.18;6.68;;;;;;;;;;5049859;28;20052;-74
2022/12/01 14:50:50;;;;;;;11.65;6.95;;;;;;;;;;5049762;28;20103;-73
2022/12/01 14:53:15;;;;;;;11.63;6.95;;;;;;;;;;5049562;28;20735;-75
2022/12/01 14:55:49;;;;;;;14.57;7.18;;;;;;;;;;5049389;28;20112;-78